M I D A S
Marine Information and Data Acquisition System
Tripno 1698 of the Zeeleeuw from 2009-05-25 11:32:49 to 2009-05-25 13:15:00
Back to CruiseResearch ActivitiesStationsMapUnderway DataData graphs

EquipmentUnitsComment
TimeDGPSUTC
LatitudeDGPSDM.mWGS84
LongitudeDGPSDM.mWGS84
HeadingGyrodeg 
SOGDGPSknotsSpeed over ground
COGDGPSdegCourse over ground
DepthEcho soundermeters200 kHz
Missing or incorrect values are displayed as -999
Navigation data collected by the RV Zeeleeuw from 2009-05-25 07:24:38 to 2009-05-25 13:27:20
Time Latitude Longitude Heading SOG COG Depth
2009-05-25 07:25:43 51°13.673 2°55.92 115.9 2.1 297 -999
2009-05-25 07:26:43 51°13.693 2°55.862 113.6 2.7 293 -999
2009-05-25 07:27:43 51°13.702 2°55.79 96.7 2.7 276 -999
2009-05-25 07:28:42 51°13.706 2°55.739 88.6 0.3 310 10.9
2009-05-25 07:29:40 51°13.713 2°55.75 40 0.3 234 11.3
2009-05-25 07:30:40 51°13.71 2°55.74 13.9 1.2 356 4.7
2009-05-25 07:31:39 51°13.758 2°55.702 330.7 4.9 327 9
2009-05-25 07:32:39 51°13.843 2°55.627 336.1 6.3 335 9.3
2009-05-25 07:33:39 51°13.942 2°55.553 336.5 6.7 334 9.4
2009-05-25 07:34:39 51°14.055 2°55.467 337.2 8 334 9.2
2009-05-25 07:35:39 51°14.178 2°55.37 336.9 8.4 332 9.1
2009-05-25 07:36:39 51°14.284 2°55.225 314.7 8.6 310 9
2009-05-25 07:37:39 51°14.364 2°55.033 302.4 8.9 298 8.8
2009-05-25 07:38:39 51°14.433 2°54.818 316.3 9.3 308 9.2
2009-05-25 07:39:39 51°14.519 2°54.591 306.2 10.4 296 9.2
2009-05-25 07:40:39 51°14.585 2°54.333 299.8 10.6 290 9.2
2009-05-25 07:41:39 51°14.64 2°54.064 291.3 11.1 282 9.3
2009-05-25 07:42:39 51°14.676 2°53.756 286.8 12.3 280 8.8
2009-05-25 07:43:39 51°14.711 2°53.435 288.4 12.3 281 8.1
2009-05-25 07:44:39 51°14.748 2°53.112 289 12.4 281 8.1
2009-05-25 07:45:39 51°14.79 2°52.787 289.2 12.5 281 8.4
2009-05-25 07:46:40 51°14.834 2°52.457 289.9 12.5 283 8.5
2009-05-25 07:47:39 51°14.878 2°52.138 289.7 12.5 282 9
2009-05-25 07:48:39 51°14.923 2°51.812 290.1 12.7 282 9.4
2009-05-25 07:49:39 51°14.931 2°51.473 272.2 13 265 10.1
2009-05-25 07:50:39 51°14.914 2°51.129 275.9 11.9 268 10.4
2009-05-25 07:51:39 51°14.899 2°50.916 272.3 5.4 263 10.9
2009-05-25 07:52:39 51°14.893 2°50.821 298.5 2.8 261 10.9
2009-05-25 07:53:40 51°14.89 2°50.744 320.2 2.7 272 10.9
2009-05-25 07:54:39 51°14.899 2°50.681 348.1 2.5 294 11
2009-05-25 07:55:39 51°14.928 2°50.631 5.4 2.7 327 11.3
2009-05-25 07:56:39 51°14.968 2°50.609 24.9 2.4 356 11.5
2009-05-25 07:57:39 51°14.993 2°50.622 56.6 1.3 48 11.5
2009-05-25 07:58:39 51°15.003 2°50.654 66.2 1.5 71 11.5
2009-05-25 07:59:39 51°15.008 2°50.703 73.6 2.1 87 11.6
2009-05-25 08:00:39 51°15.007 2°50.763 82.2 2.4 99 11.5
2009-05-25 08:01:39 51°14.993 2°50.829 95.2 2.8 118 11.3
2009-05-25 08:02:39 51°14.962 2°50.892 110.6 3.2 137 11.1
2009-05-25 08:03:39 51°14.915 2°50.945 126.8 3.8 155 11
2009-05-25 08:04:40 51°14.846 2°50.964 157 4.4 182 10.8
2009-05-25 08:05:39 51°14.775 2°50.937 181.5 4.5 201 10.6
2009-05-25 08:06:39 51°14.709 2°50.881 201.4 4.4 215 10.4
2009-05-25 08:07:39 51°14.654 2°50.806 220 4.3 226 10.3
2009-05-25 08:08:39 51°14.608 2°50.719 228.9 4.3 232 10.3
2009-05-25 08:09:40 51°14.565 2°50.626 236.7 4.3 236 10.3
2009-05-25 08:10:39 51°14.529 2°50.534 244.5 4 240 10.2
2009-05-25 08:11:39 51°14.498 2°50.442 246.4 3.9 241 10
2009-05-25 08:12:39 51°14.466 2°50.351 246.1 3.9 241 10.1
2009-05-25 08:13:39 51°14.435 2°50.26 244.7 3.9 241 10
2009-05-25 08:14:39 51°14.402 2°50.169 244.2 4 241 9.9
2009-05-25 08:15:39 51°14.37 2°50.077 244.7 4 241 9.9
2009-05-25 08:16:39 51°14.338 2°49.984 244.3 4 241 10
2009-05-25 08:17:39 51°14.305 2°49.891 244 4 241 10
2009-05-25 08:18:40 51°14.272 2°49.797 244.4 4 241 10
2009-05-25 08:19:39 51°14.24 2°49.705 244.7 4 240 10
2009-05-25 08:20:40 51°14.206 2°49.611 244.3 4 240 10.1
2009-05-25 08:21:39 51°14.173 2°49.52 244.1 4 240 10
2009-05-25 08:22:39 51°14.139 2°49.428 243.9 4 240 10.1
2009-05-25 08:23:39 51°14.106 2°49.337 244.7 3.9 241 10
2009-05-25 08:24:39 51°14.073 2°49.247 244.7 3.9 240 10
2009-05-25 08:25:39 51°14.04 2°49.157 245.2 4 239 10
2009-05-25 08:26:39 51°14.006 2°49.07 243.9 3.8 239 10
2009-05-25 08:27:40 51°13.971 2°48.982 244.7 3.8 238 10.2
2009-05-25 08:28:39 51°13.94 2°48.899 249.3 3.6 241 10.1
2009-05-25 08:29:39 51°13.916 2°48.814 268.4 3.4 252 10.2
2009-05-25 08:30:39 51°13.904 2°48.729 286.5 3.2 262 10.3
2009-05-25 08:31:39 51°13.898 2°48.652 301.2 2.7 264 10.5
2009-05-25 08:32:39 51°13.892 2°48.586 304.7 2.4 259 10.5
2009-05-25 08:33:39 51°13.883 2°48.529 309.3 2.1 255 10.6
2009-05-25 08:34:40 51°13.875 2°48.479 316.9 1.8 252 10.5
2009-05-25 08:35:39 51°13.865 2°48.437 323.7 1.6 250 10.8
2009-05-25 08:36:39 51°13.856 2°48.401 332.8 1.4 244 10.6
2009-05-25 08:37:39 51°13.845 2°48.369 341.8 1.3 236 10.7
2009-05-25 08:38:40 51°13.833 2°48.342 347.7 1.2 233 10.7
2009-05-25 08:39:39 51°13.821 2°48.318 351.7 1.2 228 10.7
2009-05-25 08:40:39 51°13.807 2°48.295 355.2 1.2 224 10.7
2009-05-25 08:41:40 51°13.791 2°48.272 356.9 1.3 223 10.7
2009-05-25 08:42:39 51°13.775 2°48.249 357.7 1.3 220 10.5
2009-05-25 08:43:39 51°13.758 2°48.226 359.4 1.4 219 10.6
2009-05-25 08:44:39 51°13.74 2°48.204 4.7 1.4 218 10.7
2009-05-25 08:45:39 51°13.721 2°48.183 11.3 1.4 215 10.6
2009-05-25 08:46:39 51°13.702 2°48.161 16 1.5 216 10.6
2009-05-25 08:47:40 51°13.682 2°48.138 19.4 1.4 213 10.7
2009-05-25 08:48:39 51°13.662 2°48.118 23 1.4 212 10.4
2009-05-25 08:49:39 51°13.642 2°48.098 25.7 1.4 211 10.5
2009-05-25 08:50:39 51°13.622 2°48.079 27.2 1.4 209 10.5
2009-05-25 08:51:39 51°13.602 2°48.06 29.1 1.4 210 10.5
2009-05-25 08:52:40 51°13.582 2°48.04 30.7 1.5 214 10.2
2009-05-25 08:53:39 51°13.563 2°48.019 33.4 1.4 213 10.3
2009-05-25 08:54:39 51°13.542 2°47.998 36 1.4 212 10.3
2009-05-25 08:55:39 51°13.522 2°47.977 39.7 1.4 211 10.1
2009-05-25 08:56:39 51°13.504 2°47.961 41.7 0.9 203 10
2009-05-25 08:57:39 51°13.505 2°47.968 42.2 0.4 51 10.1
2009-05-25 08:58:39 51°13.516 2°47.981 38.4 0.9 34 10
2009-05-25 08:59:39 51°13.535 2°48.006 45.1 1.9 49 10.3
2009-05-25 09:00:39 51°13.553 2°48.045 52 1.6 57 10.2
2009-05-25 09:01:39 51°13.569 2°48.088 54.6 2.5 59 10.3
2009-05-25 09:02:39 51°13.606 2°48.178 54.5 5.4 56 10.3
2009-05-25 09:03:39 51°13.665 2°48.315 54.5 6.9 55 10.2
2009-05-25 09:04:39 51°13.737 2°48.466 51.9 7.2 52 10.4
2009-05-25 09:05:39 51°13.798 2°48.632 60.9 7.3 62 10.2
2009-05-25 09:06:39 51°13.855 2°48.803 60.7 7.3 61 10.1
2009-05-25 09:07:39 51°13.911 2°48.973 62.5 7.3 64 10
2009-05-25 09:08:39 51°13.966 2°49.143 59.8 7.2 60 9.9
2009-05-25 09:09:39 51°14.023 2°49.313 61.5 7.3 62 9.9
2009-05-25 09:10:39 51°14.081 2°49.481 59.1 7.3 60 10
2009-05-25 09:11:39 51°14.143 2°49.647 60.3 7.2 61 9.9
2009-05-25 09:12:39 51°14.204 2°49.815 61.1 7.3 61 9.9
2009-05-25 09:13:39 51°14.265 2°49.981 59.7 7.3 59 10
2009-05-25 09:14:39 51°14.325 2°50.149 61.3 7.3 61 10.2
2009-05-25 09:15:39 51°14.386 2°50.319 61.3 7.4 62 10.3
2009-05-25 09:16:39 51°14.445 2°50.488 60.3 7.3 61 10.2
2009-05-25 09:17:39 51°14.503 2°50.659 61.5 7.2 62 10.3
2009-05-25 09:18:40 51°14.546 2°50.783 59.5 5.2 60 10.5
2009-05-25 09:19:39 51°14.586 2°50.921 69.1 6.2 72 10.4
2009-05-25 09:20:39 51°14.605 2°51.091 79.7 6.9 85 10.4
2009-05-25 09:21:39 51°14.619 2°51.278 78.7 7.2 81 10.2
2009-05-25 09:22:39 51°14.637 2°51.467 79.6 7.2 83 10.2
2009-05-25 09:23:40 51°14.654 2°51.66 79.5 7.2 82 10
2009-05-25 09:24:39 51°14.673 2°51.852 78.1 7.6 80 9.9
2009-05-25 09:25:39 51°14.693 2°52.05 77.4 7.6 80 9.6
2009-05-25 09:26:39 51°14.711 2°52.25 79.1 7.7 82 9.6
2009-05-25 09:27:39 51°14.73 2°52.45 78.5 7.7 82 9.5
2009-05-25 09:28:39 51°14.749 2°52.651 78.5 7.6 80 9.5
2009-05-25 09:29:39 51°14.767 2°52.835 76.2 4.9 79 9.7
2009-05-25 09:30:39 51°14.784 2°52.989 78.4 6.6 82 9.5
2009-05-25 09:31:39 51°14.8 2°53.168 79.9 6.9 83 9.6
2009-05-25 09:32:39 51°14.818 2°53.351 79.2 7 81 9.9
2009-05-25 09:33:39 51°14.836 2°53.535 78.5 7.1 81 10
2009-05-25 09:34:39 51°14.843 2°53.723 87.9 7.2 91 9.8
2009-05-25 09:35:39 51°14.828 2°53.915 97.6 7.3 101 9.7
2009-05-25 09:36:39 51°14.776 2°54.09 118 7.4 123 9.9
2009-05-25 09:37:39 51°14.715 2°54.262 116.2 7.5 120 10.4
2009-05-25 09:38:39 51°14.656 2°54.436 111.9 7.4 119 10.4
2009-05-25 09:39:39 51°14.583 2°54.599 117.7 7.6 125 10.2
2009-05-25 09:40:39 51°14.505 2°54.765 123.7 7.9 130 10.5
2009-05-25 09:41:39 51°14.424 2°54.93 122.2 8 126 10.5
2009-05-25 09:42:39 51°14.343 2°55.111 126 8.7 125 10.5
2009-05-25 09:43:39 51°14.246 2°55.285 135.8 8.7 134 10.4
2009-05-25 09:44:39 51°14.134 2°55.428 148 8.6 147 10.4
2009-05-25 09:45:39 51°14.02 2°55.513 159.8 6.4 158 10.5
2009-05-25 09:46:39 51°13.928 2°55.573 159 5.9 158 10.6
2009-05-25 09:47:39 51°13.836 2°55.634 157.9 5.8 157 10.2
2009-05-25 09:48:39 51°13.762 2°55.7 143 4.6 140 10.3
2009-05-25 09:49:39 51°13.716 2°55.795 123.6 4.6 121 11.8
2009-05-25 09:50:39 51°13.682 2°55.891 120 3.7 117 7
2009-05-25 09:51:39 51°13.666 2°55.949 119 1.2 123 5.8
2009-05-25 09:52:39 51°13.662 2°55.958 122.3 -999 146 5.7
2009-05-25 09:53:39 51°13.663 2°55.959 129.6 -999 75 5.2
2009-05-25 09:54:39 51°13.663 2°55.959 127.5 -999 227 5.1
2009-05-25 09:55:39 51°13.663 2°55.959 127.8 -999 342 -999
2009-05-25 09:56:39 51°13.664 2°55.959 126.3 -999 97 5.7
2009-05-25 09:57:39 51°13.664 2°55.959 126.3 -999 292 5.6
2009-05-25 09:58:39 51°13.664 2°55.959 127.3 0.1 321 5.7
2009-05-25 09:59:39 51°13.663 2°55.959 127.7 -999 331 5.7
2009-05-25 10:00:39 51°13.664 2°55.958 125.9 -999 171 5.6
2009-05-25 10:01:39 51°13.664 2°55.959 127.1 -999 237 5.7
2009-05-25 10:02:39 51°13.664 2°55.959 127.3 -999 28 5.6
2009-05-25 10:03:39 51°13.664 2°55.959 127 -999 251 5.6
2009-05-25 10:04:39 51°13.664 2°55.959 126.3 -999 203 5.6
2009-05-25 10:05:39 51°13.664 2°55.959 126.7 -999 242 5.7
2009-05-25 10:06:40 51°13.664 2°55.959 126.5 -999 35 5.7
2009-05-25 10:07:40 51°13.664 2°55.958 126.3 -999 124 5.7
2009-05-25 10:08:39 51°13.664 2°55.959 126.3 -999 58 5.7
2009-05-25 10:09:39 51°13.664 2°55.959 126.4 -999 327 5.8
2009-05-25 10:10:40 51°13.664 2°55.96 126.3 -999 343 5.8
2009-05-25 10:11:40 51°13.664 2°55.959 125.9 -999 162 5.8
2009-05-25 10:12:39 51°13.664 2°55.959 125.9 -999 88 5.9
2009-05-25 10:13:39 51°13.661 2°55.96 125.5 -999 54 6
2009-05-25 10:14:39 51°13.662 2°55.959 124.9 -999 95 5.9
2009-05-25 10:15:39 51°13.662 2°55.959 125 -999 46 6
2009-05-25 10:16:40 51°13.662 2°55.959 125.3 -999 198 6
2009-05-25 10:17:39 51°13.662 2°55.959 125.7 -999 32 6
2009-05-25 10:18:39 51°13.662 2°55.959 125.7 -999 130 6
2009-05-25 10:19:39 51°13.663 2°55.959 125.6 -999 256 6
2009-05-25 10:20:40 51°13.663 2°55.958 125.7 -999 87 6
2009-05-25 10:21:40 51°13.662 2°55.958 125.5 -999 179 6
2009-05-25 10:22:39 51°13.662 2°55.958 125.4 -999 65 6
2009-05-25 10:23:39 51°13.662 2°55.958 125.4 -999 279 6
2009-05-25 10:24:39 51°13.662 2°55.959 125.4 -999 188 6
2009-05-25 10:25:39 51°13.662 2°55.959 125.8 -999 93 6
2009-05-25 10:26:39 51°13.663 2°55.959 126 -999 44 6
2009-05-25 10:27:40 51°13.663 2°55.959 125.2 -999 316 6
2009-05-25 10:28:39 51°13.664 2°55.959 125.3 -999 48 6.1
2009-05-25 10:29:40 51°13.662 2°55.959 125.3 -999 72 6.1
2009-05-25 10:30:39 51°13.663 2°55.959 125.3 -999 347 6.1
2009-05-25 10:31:40 51°13.664 2°55.959 125.2 -999 310 6.1
2009-05-25 10:32:40 51°13.664 2°55.959 125 -999 78 6.2
2009-05-25 10:33:40 51°13.666 2°55.958 125.3 -999 77 6.2
2009-05-25 10:34:40 51°13.664 2°55.959 125.3 -999 94 6.2
2009-05-25 10:35:39 51°13.665 2°55.958 125.3 -999 339 6.3
2009-05-25 10:36:40 51°13.664 2°55.959 125 -999 46 6.3
2009-05-25 10:37:39 51°13.662 2°55.959 125 -999 222 6.4
2009-05-25 10:38:40 51°13.663 2°55.959 125 -999 67 6.4
2009-05-25 10:39:40 51°13.662 2°55.959 125 -999 337 6.4
2009-05-25 10:40:39 51°13.662 2°55.959 124.9 -999 320 6.5
2009-05-25 10:41:39 51°13.66 2°55.96 125 -999 58 6.5
2009-05-25 10:42:39 51°13.661 2°55.959 125 -999 102 6.5
2009-05-25 10:43:39 51°13.662 2°55.959 125.6 -999 309 6.5
2009-05-25 10:44:39 51°13.662 2°55.959 125 -999 78 6.6
2009-05-25 10:45:39 51°13.662 2°55.959 125.3 -999 46 6.6
2009-05-25 10:46:39 51°13.662 2°55.959 125.5 -999 156 6.6
2009-05-25 10:47:39 51°13.662 2°55.959 125.7 -999 186 6.6
2009-05-25 10:48:39 51°13.662 2°55.958 125.7 -999 276 6.6
2009-05-25 10:49:39 51°13.663 2°55.959 125.7 -999 175 6.7
2009-05-25 10:50:39 51°13.663 2°55.958 125.5 -999 2 6.6
2009-05-25 10:51:40 51°13.663 2°55.959 125.5 -999 355 6.7
2009-05-25 10:52:40 51°13.662 2°55.958 125.4 -999 182 6.7
2009-05-25 10:53:40 51°13.663 2°55.958 125.5 -999 357 6.7
2009-05-25 10:54:40 51°13.663 2°55.958 125.5 -999 93 6.8
2009-05-25 10:55:40 51°13.663 2°55.959 125.9 -999 97 6.8
2009-05-25 10:56:40 51°13.663 2°55.959 125.4 -999 107 6.8
2009-05-25 10:57:40 51°13.663 2°55.959 125.7 -999 291 6.9
2009-05-25 10:58:40 51°13.663 2°55.959 125.6 -999 87 6.9
2009-05-25 10:59:39 51°13.661 2°55.958 125.7 -999 189 6.9
2009-05-25 11:00:39 51°13.661 2°55.958 125.3 -999 233 6.9
2009-05-25 11:01:40 51°13.662 2°55.958 125.4 -999 46 7
2009-05-25 11:02:39 51°13.662 2°55.958 125.6 -999 92 7
2009-05-25 11:03:40 51°13.662 2°55.958 125.5 -999 206 5.3
2009-05-25 11:04:40 51°13.662 2°55.958 125.8 -999 232 5.4
2009-05-25 11:05:39 51°13.663 2°55.959 125.8 -999 289 7
2009-05-25 11:06:40 51°13.663 2°55.959 125.8 -999 4 7.1
2009-05-25 11:07:39 51°13.663 2°55.959 125.9 -999 300 7.1
2009-05-25 11:08:40 51°13.663 2°55.959 126.4 -999 288 7.2
2009-05-25 11:09:40 51°13.663 2°55.959 126.1 -999 108 7.2
2009-05-25 11:10:40 51°13.663 2°55.959 126.4 -999 289 7.2
2009-05-25 11:11:40 51°13.663 2°55.959 126.6 0.1 246 5.5
2009-05-25 11:12:40 51°13.664 2°55.959 125.8 -999 288 7.4
2009-05-25 11:13:40 51°13.664 2°55.959 125.5 -999 233 5.6
2009-05-25 11:14:39 51°13.664 2°55.958 125.6 -999 57 7.6
2009-05-25 11:15:40 51°13.663 2°55.959 128.8 0.1 329 7.7
2009-05-25 11:16:40 51°13.663 2°55.959 128.3 -999 23 7.7
2009-05-25 11:17:40 51°13.663 2°55.958 127.8 0.1 283 7.8
2009-05-25 11:18:40 51°13.663 2°55.957 130.8 0.1 52 7.8
2009-05-25 11:19:40 51°13.662 2°55.959 120.3 -999 236 7.9
2009-05-25 11:20:40 51°13.662 2°55.959 115.6 0.1 265 7.9
2009-05-25 11:21:40 51°13.669 2°55.939 116.3 1.7 300 4.6
2009-05-25 11:22:43 51°13.686 2°55.879 113.3 2.8 291 -999
2009-05-25 11:23:43 51°13.71 2°55.805 127.8 3.2 303 -999
2009-05-25 11:24:43 51°13.746 2°55.732 138.2 3.8 313 -999
2009-05-25 11:25:43 51°13.793 2°55.673 156.1 3.5 330 12.5
2009-05-25 11:26:42 51°13.844 2°55.643 171.1 3.1 345 12.2
2009-05-25 11:27:43 51°13.893 2°55.637 195.8 2.5 10 12.8
2009-05-25 11:28:41 51°13.92 2°55.65 213.9 0.6 9 12.6
2009-05-25 11:29:39 51°13.918 2°55.623 271.3 1.9 272 12.8
2009-05-25 11:30:40 51°13.947 2°55.566 332.3 3.7 328 13.1
2009-05-25 11:31:40 51°14.034 2°55.489 335 7.2 332 13.1
2009-05-25 11:32:39 51°14.145 2°55.398 335.4 8 332 13
2009-05-25 11:33:40 51°14.255 2°55.269 317.2 8.4 311 13.1
2009-05-25 11:34:40 51°14.345 2°55.083 302 9.3 299 13.2
2009-05-25 11:35:40 51°14.451 2°54.904 305.8 9.2 313 13.2
2009-05-25 11:36:40 51°14.56 2°54.717 306.6 9.9 312 13
2009-05-25 11:37:40 51°14.666 2°54.492 300.3 11 304 12.9
2009-05-25 11:38:40 51°14.758 2°54.242 290.4 10.8 294 13.3
2009-05-25 11:39:40 51°14.824 2°53.973 284.3 10.9 287 12.4
2009-05-25 11:40:40 51°14.863 2°53.689 277.7 10.9 280 12.4
2009-05-25 11:41:40 51°14.886 2°53.405 277.4 10.9 280 12.8
2009-05-25 11:42:40 51°14.914 2°53.121 275.1 10.9 278 12.8
2009-05-25 11:43:40 51°14.938 2°52.835 276.1 11 279 12.9
2009-05-25 11:44:40 51°14.95 2°52.547 270.1 10.8 272 13
2009-05-25 11:45:39 51°14.957 2°52.267 270.5 10.8 273 13.2
2009-05-25 11:46:40 51°14.965 2°51.978 270.5 10.8 273 13.4
2009-05-25 11:47:40 51°14.947 2°51.696 259.9 10.6 262 13.7
2009-05-25 11:48:40 51°14.919 2°51.42 262.2 10.5 264 14.1
2009-05-25 11:49:40 51°14.916 2°51.138 266.9 10.6 266 14.4
2009-05-25 11:50:40 51°14.885 2°50.897 242.9 6.7 238 14.8
2009-05-25 11:51:40 51°14.821 2°50.838 200.4 3.4 182 14.8
2009-05-25 11:52:40 51°14.773 2°50.865 178 2.9 152 14.7
2009-05-25 11:53:40 51°14.734 2°50.909 169.2 3 143 14.4
2009-05-25 11:54:39 51°14.689 2°50.944 193 2.9 176 14.1
2009-05-25 11:55:40 51°14.645 2°50.907 226.1 3.4 222 14
2009-05-25 11:56:40 51°14.6 2°50.844 226.9 3.7 225 13.9
2009-05-25 11:57:40 51°14.556 2°50.777 227.9 3.6 227 13.7
2009-05-25 11:58:40 51°14.519 2°50.706 233.5 3.5 235 13.5
2009-05-25 11:59:40 51°14.489 2°50.628 238.2 3.4 239 13.6
2009-05-25 12:00:40 51°14.46 2°50.547 238.9 3.5 241 13.5
2009-05-25 12:01:40 51°14.428 2°50.469 236.5 3.6 236 13.4
2009-05-25 12:02:40 51°14.394 2°50.389 237.4 3.6 236 13.4
2009-05-25 12:03:39 51°14.361 2°50.315 237.4 3.5 235 13.4
2009-05-25 12:04:40 51°14.328 2°50.239 237.5 3.4 236 13.4
2009-05-25 12:05:40 51°14.297 2°50.163 238.9 3.4 238 13.3
2009-05-25 12:06:40 51°14.267 2°50.085 239 3.5 239 13
2009-05-25 12:07:40 51°14.238 2°50.009 239.4 3.2 240 13.2
2009-05-25 12:08:39 51°14.213 2°49.941 240 3 240 13.2
2009-05-25 12:09:40 51°14.187 2°49.872 239.5 3 239 13.2
2009-05-25 12:10:39 51°14.161 2°49.806 239.6 3 239 13.1
2009-05-25 12:11:40 51°14.136 2°49.736 239.7 3 241 13.1
2009-05-25 12:12:40 51°14.11 2°49.667 239 3 240 13.1
2009-05-25 12:13:40 51°14.085 2°49.597 239 3 241 13.1
2009-05-25 12:14:40 51°14.061 2°49.526 239.2 3.1 243 13.1
2009-05-25 12:15:40 51°14.037 2°49.454 239.6 3.1 242 13.1
2009-05-25 12:16:40 51°14.013 2°49.384 239 3 241 13.2
2009-05-25 12:17:40 51°13.99 2°49.315 238.6 2.9 240 13.1
2009-05-25 12:18:40 51°13.965 2°49.248 238.9 2.9 239 13.1
2009-05-25 12:19:39 51°13.941 2°49.183 239.6 2.9 239 13.1
2009-05-25 12:20:40 51°13.917 2°49.115 239.7 2.9 241 13.1
2009-05-25 12:21:40 51°13.892 2°49.048 239 3 241 12.9
2009-05-25 12:22:40 51°13.867 2°48.982 239.2 2.9 239 13
2009-05-25 12:23:39 51°13.843 2°48.916 238.9 2.9 239 13.1
2009-05-25 12:24:40 51°13.817 2°48.846 239.6 3 240 13.2
2009-05-25 12:25:40 51°13.795 2°48.775 244 3.1 248 13.4
2009-05-25 12:26:40 51°13.788 2°48.697 260.5 3 273 13.6
2009-05-25 12:27:40 51°13.802 2°48.618 276.8 3.2 296 13.8
2009-05-25 12:28:40 51°13.841 2°48.552 304.3 3.5 332 14.2
2009-05-25 12:29:40 51°13.889 2°48.533 322.3 3 355 14.3
2009-05-25 12:30:39 51°13.932 2°48.535 329 2.4 6 14.4
2009-05-25 12:31:40 51°13.97 2°48.549 335.5 2.2 18 14.4
2009-05-25 12:32:40 51°14.003 2°48.569 342.3 2.1 24 14.5
2009-05-25 12:33:40 51°14.034 2°48.593 351.1 2.1 30 14.5
2009-05-25 12:34:40 51°14.062 2°48.621 1.2 2 36 14.6
2009-05-25 12:35:40 51°14.095 2°48.657 15.7 3.3 32 14.7
2009-05-25 12:36:40 51°14.15 2°48.737 52.6 5.5 54 14.7
2009-05-25 12:37:40 51°14.191 2°48.883 74.6 6.5 69 14.7
2009-05-25 12:38:40 51°14.234 2°49.05 71.5 6.9 67 14.7
2009-05-25 12:39:39 51°14.277 2°49.22 72.7 7.1 68 14.7
2009-05-25 12:40:40 51°14.321 2°49.397 73.5 7.1 69 14.7
2009-05-25 12:41:40 51°14.363 2°49.572 73.8 7 69 14.6
2009-05-25 12:42:40 51°14.403 2°49.747 73.7 7 70 14.7
2009-05-25 12:43:40 51°14.455 2°49.912 53.9 6.9 53 14.7
2009-05-25 12:44:40 51°14.534 2°50.043 46.8 6.9 49 14.6
2009-05-25 12:45:40 51°14.594 2°50.199 70.2 6.8 68 14.6
2009-05-25 12:46:40 51°14.616 2°50.373 89.6 6.8 81 14.6
2009-05-25 12:47:40 51°14.633 2°50.554 90.9 6.9 82 14.5
2009-05-25 12:48:39 51°14.65 2°50.733 89.8 6.9 82 14.3
2009-05-25 12:49:40 51°14.666 2°50.916 90.1 6.8 82 14.3
2009-05-25 12:50:40 51°14.681 2°51.096 89.8 6.9 82 13.9
2009-05-25 12:51:40 51°14.697 2°51.277 89.3 6.9 81 13.8
2009-05-25 12:52:40 51°14.714 2°51.458 88.6 6.9 79 13.5
2009-05-25 12:53:39 51°14.74 2°51.633 87.3 6.8 80 13.4
2009-05-25 12:54:40 51°14.758 2°51.816 89.2 6.9 82 13.4
2009-05-25 12:55:39 51°14.774 2°51.993 91.3 6.9 83 13.2
2009-05-25 12:56:39 51°14.791 2°52.174 88.5 6.9 80 13
2009-05-25 12:57:39 51°14.808 2°52.353 89.3 6.8 81 12.9
2009-05-25 12:58:39 51°14.824 2°52.53 90.8 6.7 83 12.9
2009-05-25 12:59:40 51°14.838 2°52.709 90.3 6.7 82 12.9
2009-05-25 13:00:40 51°14.856 2°52.884 88.6 6.7 81 12.9
2009-05-25 13:01:40 51°14.873 2°53.057 91.2 6.4 83 13.1
2009-05-25 13:02:39 51°14.885 2°53.221 89.3 6.3 82 13.1
2009-05-25 13:03:40 51°14.901 2°53.386 89.4 6.2 80 13.1
2009-05-25 13:04:40 51°14.912 2°53.538 94.4 4.6 88 13
2009-05-25 13:05:40 51°14.914 2°53.671 95.8 6.2 87 12.7
2009-05-25 13:06:40 51°14.896 2°53.848 117.6 7.1 108 12.9
2009-05-25 13:07:39 51°14.863 2°54.038 115.4 7.9 108 12.5
2009-05-25 13:08:40 51°14.796 2°54.215 139.4 7.8 125 13.1
2009-05-25 13:09:39 51°14.72 2°54.38 141.6 7.8 127 13.2
2009-05-25 13:10:40 51°14.636 2°54.539 142.5 7.7 129 13.2
2009-05-25 13:11:39 51°14.552 2°54.687 150.7 7.5 136 13.3
2009-05-25 13:12:40 51°14.472 2°54.855 137.4 7.9 125 13.5
2009-05-25 13:13:39 51°14.391 2°55.012 140.4 7.6 135 13.2
2009-05-25 13:14:40 51°14.306 2°55.159 130 7.4 132 13.3
2009-05-25 13:15:39 51°14.229 2°55.308 134.3 7.4 135 13.4
2009-05-25 13:16:39 51°14.133 2°55.411 151.2 7 153 13.4
2009-05-25 13:17:40 51°14.023 2°55.491 157.2 7.2 157 13
2009-05-25 13:18:40 51°13.919 2°55.56 157.6 6.5 158 13.4
2009-05-25 13:19:40 51°13.832 2°55.621 155.4 5.1 154 13
2009-05-25 13:20:39 51°13.766 2°55.684 140.5 4.4 138 13.1
2009-05-25 13:21:40 51°13.725 2°55.774 124 3.8 124 15.1
2009-05-25 13:22:40 51°13.697 2°55.85 122.7 2.9 121 9.9
2009-05-25 13:23:40 51°13.675 2°55.911 117.8 2.4 117 9.7
2009-05-25 13:24:40 51°13.667 2°55.947 114.3 0.3 98 8.7
2009-05-25 13:25:40 51°13.665 2°55.951 117.4 0.2 130 8.5
2009-05-25 13:26:40 51°13.662 2°55.956 129.4 0.1 112 8.7